sensor_id;sensor_type;location;lat;lon;timestamp;temperature;humidity
21302;DHT22;10810;48.270;9.996;2023-02-22T00:02:23;3.70;99.90
21302;DHT22;10810;48.270;9.996;2023-02-22T00:05:03;3.40;99.90
21302;DHT22;10810;48.270;9.996;2023-02-22T00:07:35;3.60;99.90
21302;DHT22;10810;48.270;9.996;2023-02-22T00:10:21;3.40;99.90
21302;DHT22;10810;48.270;9.996;2023-02-22T00:13:12;3.40;99.90
21302;DHT22;10810;48.270;9.996;2023-02-22T00:15:45;3.40;99.90
21302;DHT22;10810;48.270;9.996;2023-02-22T00:18:14;3.30;99.90
21302;DHT22;10810;48.270;9.996;2023-02-22T00:20:46;3.30;99.90
21302;DHT22;10810;48.270;9.996;2023-02-22T00:23:17;3.40;99.90
21302;DHT22;10810;48.270;9.996;2023-02-22T00:26:03;3.50;99.90
21302;DHT22;10810;48.270;9.996;2023-02-22T00:28:36;3.50;99.90
21302;DHT22;10810;48.270;9.996;2023-02-22T00:31:05;3.40;99.90
21302;DHT22;10810;48.270;9.996;2023-02-22T00:33:32;3.30;99.90
21302;DHT22;10810;48.270;9.996;2023-02-22T00:36:22;3.10;99.90
21302;DHT22;10810;48.270;9.996;2023-02-22T00:38:51;3.20;99.90
21302;DHT22;10810;48.270;9.996;2023-02-22T00:41:18;3.10;99.90
21302;DHT22;10810;48.270;9.996;2023-02-22T00:44:04;3.10;99.90
21302;DHT22;10810;48.270;9.996;2023-02-22T00:46:33;3.20;99.90
21302;DHT22;10810;48.270;9.996;2023-02-22T00:49:14;3.10;99.90
21302;DHT22;10810;48.270;9.996;2023-02-22T00:51:53;3.10;99.90
21302;DHT22;10810;48.270;9.996;2023-02-22T00:54:25;2.80;99.90
21302;DHT22;10810;48.270;9.996;2023-02-22T00:56:56;2.80;99.90
21302;DHT22;10810;48.270;9.996;2023-02-22T00:59:35;2.70;99.90
21302;DHT22;10810;48.270;9.996;2023-02-22T01:02:09;2.80;99.90
21302;DHT22;10810;48.270;9.996;2023-02-22T01:04:44;2.90;99.90
21302;DHT22;10810;48.270;9.996;2023-02-22T01:07:16;2.90;99.90
21302;DHT22;10810;48.270;9.996;2023-02-22T01:09:47;3.00;99.90
21302;DHT22;10810;48.270;9.996;2023-02-22T01:12:16;2.90;99.90
21302;DHT22;10810;48.270;9.996;2023-02-22T01:14:47;2.90;99.90
21302;DHT22;10810;48.270;9.996;2023-02-22T01:17:30;2.90;99.90
21302;DHT22;10810;48.270;9.996;2023-02-22T01:20:04;2.90;99.90
21302;DHT22;10810;48.270;9.996;2023-02-22T01:22:39;2.80;99.90
21302;DHT22;10810;48.270;9.996;2023-02-22T01:25:09;2.80;99.90
21302;DHT22;10810;48.270;9.996;2023-02-22T01:29:21;2.70;99.90
21302;DHT22;10810;48.270;9.996;2023-02-22T01:30:39;2.80;99.90
21302;DHT22;10810;48.270;9.996;2023-02-22T01:33:19;2.60;99.90
21302;DHT22;10810;48.270;9.996;2023-02-22T01:36:01;2.50;99.90
21302;DHT22;10810;48.270;9.996;2023-02-22T01:38:55;2.40;99.90
21302;DHT22;10810;48.270;9.996;2023-02-22T01:41:23;2.00;99.90
21302;DHT22;10810;48.270;9.996;2023-02-22T01:43:50;2.50;99.90
21302;DHT22;10810;48.270;9.996;2023-02-22T01:46:36;2.50;99.90
21302;DHT22;10810;48.270;9.996;2023-02-22T01:49:05;2.50;99.90
21302;DHT22;10810;48.270;9.996;2023-02-22T01:51:38;2.50;99.90
21302;DHT22;10810;48.270;9.996;2023-02-22T01:54:13;2.50;99.90
21302;DHT22;10810;48.270;9.996;2023-02-22T01:56:47;2.50;99.90
21302;DHT22;10810;48.270;9.996;2023-02-22T01:59:20;2.60;99.90
21302;DHT22;10810;48.270;9.996;2023-02-22T02:02:00;2.60;99.90
21302;DHT22;10810;48.270;9.996;2023-02-22T02:04:30;2.50;99.90
21302;DHT22;10810;48.270;9.996;2023-02-22T02:07:00;2.60;99.90
21302;DHT22;10810;48.270;9.996;2023-02-22T02:09:33;2.50;99.90
21302;DHT22;10810;48.270;9.996;2023-02-22T02:12:02;2.60;99.90
21302;DHT22;10810;48.270;9.996;2023-02-22T02:14:31;2.60;99.90
21302;DHT22;10810;48.270;9.996;2023-02-22T02:17:03;2.70;99.90
21302;DHT22;10810;48.270;9.996;2023-02-22T02:19:40;2.60;99.90
21302;DHT22;10810;48.270;9.996;2023-02-22T02:22:34;2.60;99.90
21302;DHT22;10810;48.270;9.996;2023-02-22T02:25:41;1.80;99.90
21302;DHT22;10810;48.270;9.996;2023-02-22T02:32:05;2.30;99.90
21302;DHT22;10810;48.270;9.996;2023-02-22T02:34:38;2.30;99.90
21302;DHT22;10810;48.270;9.996;2023-02-22T02:37:14;2.40;99.90
21302;DHT22;10810;48.270;9.996;2023-02-22T02:39:50;2.30;99.90
21302;DHT22;10810;48.270;9.996;2023-02-22T02:42:21;2.30;99.90
21302;DHT22;10810;48.270;9.996;2023-02-22T02:44:57;2.50;99.90
21302;DHT22;10810;48.270;9.996;2023-02-22T02:47:46;2.30;99.90
21302;DHT22;10810;48.270;9.996;2023-02-22T02:50:26;2.20;99.90
21302;DHT22;10810;48.270;9.996;2023-02-22T02:52:58;2.10;99.90
21302;DHT22;10810;48.270;9.996;2023-02-22T02:55:32;2.00;99.90
21302;DHT22;10810;48.270;9.996;2023-02-22T02:58:07;2.00;99.90
21302;DHT22;10810;48.270;9.996;2023-02-22T03:00:38;2.10;99.90
21302;DHT22;10810;48.270;9.996;2023-02-22T03:03:22;2.00;99.90
21302;DHT22;10810;48.270;9.996;2023-02-22T03:06:10;2.40;99.90
21302;DHT22;10810;48.270;9.996;2023-02-22T03:08:51;2.00;99.90
21302;DHT22;10810;48.270;9.996;2023-02-22T03:11:21;2.00;99.90
21302;DHT22;10810;48.270;9.996;2023-02-22T03:14:15;2.00;99.90
21302;DHT22;10810;48.270;9.996;2023-02-22T03:16:47;1.80;99.90
21302;DHT22;10810;48.270;9.996;2023-02-22T03:19:27;2.00;99.90
21302;DHT22;10810;48.270;9.996;2023-02-22T03:22:04;2.10;99.90
21302;DHT22;10810;48.270;9.996;2023-02-22T03:24:38;1.90;99.90
21302;DHT22;10810;48.270;9.996;2023-02-22T03:27:11;2.20;99.90
21302;DHT22;10810;48.270;9.996;2023-02-22T03:29:43;1.90;99.90
21302;DHT22;10810;48.270;9.996;2023-02-22T03:32:15;2.10;99.90
21302;DHT22;10810;48.270;9.996;2023-02-22T03:34:52;1.90;99.90
21302;DHT22;10810;48.270;9.996;2023-02-22T03:37:29;2.60;99.90
21302;DHT22;10810;48.270;9.996;2023-02-22T03:40:02;1.80;99.90
21302;DHT22;10810;48.270;9.996;2023-02-22T03:43:01;1.90;99.90
21302;DHT22;10810;48.270;9.996;2023-02-22T03:45:49;1.90;99.90
21302;DHT22;10810;48.270;9.996;2023-02-22T03:48:25;1.90;99.90
21302;DHT22;10810;48.270;9.996;2023-02-22T03:50:58;2.00;99.90
21302;DHT22;10810;48.270;9.996;2023-02-22T03:53:41;2.20;99.90
21302;DHT22;10810;48.270;9.996;2023-02-22T03:56:18;2.70;99.90
21302;DHT22;10810;48.270;9.996;2023-02-22T03:58:47;2.20;99.90
21302;DHT22;10810;48.270;9.996;2023-02-22T04:01:15;2.00;99.90
21302;DHT22;10810;48.270;9.996;2023-02-22T04:03:44;1.90;99.90
21302;DHT22;10810;48.270;9.996;2023-02-22T04:06:36;1.80;99.90
21302;DHT22;10810;48.270;9.996;2023-02-22T04:09:10;1.90;99.90
21302;DHT22;10810;48.270;9.996;2023-02-22T04:11:39;1.90;99.90
21302;DHT22;10810;48.270;9.996;2023-02-22T04:14:21;2.00;99.90
21302;DHT22;10810;48.270;9.996;2023-02-22T04:16:53;1.60;99.90
21302;DHT22;10810;48.270;9.996;2023-02-22T04:19:22;1.50;99.90
21302;DHT22;10810;48.270;9.996;2023-02-22T04:21:53;1.50;99.90
21302;DHT22;10810;48.270;9.996;2023-02-22T04:24:23;1.60;99.90
21302;DHT22;10810;48.270;9.996;2023-02-22T04:27:00;0.80;99.90
21302;DHT22;10810;48.270;9.996;2023-02-22T04:29:32;1.40;99.90
21302;DHT22;10810;48.270;9.996;2023-02-22T04:32:14;1.40;99.90
21302;DHT22;10810;48.270;9.996;2023-02-22T04:34:48;1.40;99.90
21302;DHT22;10810;48.270;9.996;2023-02-22T04:37:20;0.60;99.90
21302;DHT22;10810;48.270;9.996;2023-02-22T04:39:51;2.30;99.90
21302;DHT22;10810;48.270;9.996;2023-02-22T04:42:24;1.50;99.90
21302;DHT22;10810;48.270;9.996;2023-02-22T04:45:08;1.40;99.90
21302;DHT22;10810;48.270;9.996;2023-02-22T04:48:12;2.00;99.90
21302;DHT22;10810;48.270;9.996;2023-02-22T04:50:44;1.60;99.90
21302;DHT22;10810;48.270;9.996;2023-02-22T04:53:40;1.40;99.90
21302;DHT22;10810;48.270;9.996;2023-02-22T04:56:08;1.80;99.90
21302;DHT22;10810;48.270;9.996;2023-02-22T04:58:42;1.40;99.90
21302;DHT22;10810;48.270;9.996;2023-02-22T05:01:13;1.40;99.90
21302;DHT22;10810;48.270;9.996;2023-02-22T05:03:42;1.40;99.90
21302;DHT22;10810;48.270;9.996;2023-02-22T05:06:11;2.20;99.90
21302;DHT22;10810;48.270;9.996;2023-02-22T05:08:39;2.10;99.90
21302;DHT22;10810;48.270;9.996;2023-02-22T05:11:11;1.30;99.90
21302;DHT22;10810;48.270;9.996;2023-02-22T05:13:50;0.40;99.90
21302;DHT22;10810;48.270;9.996;2023-02-22T05:16:17;1.50;99.90
21302;DHT22;10810;48.270;9.996;2023-02-22T05:19:04;1.50;99.90
21302;DHT22;10810;48.270;9.996;2023-02-22T05:21:33;1.40;99.90
21302;DHT22;10810;48.270;9.996;2023-02-22T05:24:06;1.40;99.90
21302;DHT22;10810;48.270;9.996;2023-02-22T05:26:45;1.20;99.90
21302;DHT22;10810;48.270;9.996;2023-02-22T05:29:15;1.30;99.90
21302;DHT22;10810;48.270;9.996;2023-02-22T05:31:43;1.30;99.90
21302;DHT22;10810;48.270;9.996;2023-02-22T05:34:13;1.90;99.90
21302;DHT22;10810;48.270;9.996;2023-02-22T05:36:50;1.90;99.90
21302;DHT22;10810;48.270;9.996;2023-02-22T05:39:28;1.40;99.90
21302;DHT22;10810;48.270;9.996;2023-02-22T05:41:57;1.30;99.90
21302;DHT22;10810;48.270;9.996;2023-02-22T05:44:28;1.20;99.90
21302;DHT22;10810;48.270;9.996;2023-02-22T05:47:02;2.10;99.90
21302;DHT22;10810;48.270;9.996;2023-02-22T05:49:52;1.50;99.90
21302;DHT22;10810;48.270;9.996;2023-02-22T05:52:22;1.20;99.90
21302;DHT22;10810;48.270;9.996;2023-02-22T05:54:51;1.20;99.90
21302;DHT22;10810;48.270;9.996;2023-02-22T05:57:27;1.30;99.90
21302;DHT22;10810;48.270;9.996;2023-02-22T06:00:20;1.00;99.90
21302;DHT22;10810;48.270;9.996;2023-02-22T06:03:04;0.90;99.90
21302;DHT22;10810;48.270;9.996;2023-02-22T06:05:53;1.40;99.90
21302;DHT22;10810;48.270;9.996;2023-02-22T06:08:29;0.60;99.90
21302;DHT22;10810;48.270;9.996;2023-02-22T06:11:17;0.60;99.90
21302;DHT22;10810;48.270;9.996;2023-02-22T06:13:49;0.70;99.90
21302;DHT22;10810;48.270;9.996;2023-02-22T06:16:17;1.70;99.90
21302;DHT22;10810;48.270;9.996;2023-02-22T06:18:55;0.80;99.90
21302;DHT22;10810;48.270;9.996;2023-02-22T06:21:24;1.20;99.90
21302;DHT22;10810;48.270;9.996;2023-02-22T06:24:01;1.00;99.90
21302;DHT22;10810;48.270;9.996;2023-02-22T06:26:34;2.00;99.90
21302;DHT22;10810;48.270;9.996;2023-02-22T06:29:09;1.70;99.90
21302;DHT22;10810;48.270;9.996;2023-02-22T06:31:52;1.80;99.90
21302;DHT22;10810;48.270;9.996;2023-02-22T06:34:23;1.80;99.90
21302;DHT22;10810;48.270;9.996;2023-02-22T06:37:12;1.00;99.90
21302;DHT22;10810;48.270;9.996;2023-02-22T06:39:46;2.00;99.90
21302;DHT22;10810;48.270;9.996;2023-02-22T06:42:39;1.90;99.90
21302;DHT22;10810;48.270;9.996;2023-02-22T06:45:24;1.50;99.90
21302;DHT22;10810;48.270;9.996;2023-02-22T06:47:52;1.60;99.90
21302;DHT22;10810;48.270;9.996;2023-02-22T06:50:28;1.30;99.90
21302;DHT22;10810;48.270;9.996;2023-02-22T06:52:58;1.60;99.90
21302;DHT22;10810;48.270;9.996;2023-02-22T06:55:36;1.60;99.90
21302;DHT22;10810;48.270;9.996;2023-02-22T06:58:08;2.10;99.90
21302;DHT22;10810;48.270;9.996;2023-02-22T07:00:39;2.10;99.90
21302;DHT22;10810;48.270;9.996;2023-02-22T07:03:10;1.80;99.90
21302;DHT22;10810;48.270;9.996;2023-02-22T07:05:38;1.70;99.90
21302;DHT22;10810;48.270;9.996;2023-02-22T07:08:22;1.80;99.90
21302;DHT22;10810;48.270;9.996;2023-02-22T07:10:55;1.90;99.90
21302;DHT22;10810;48.270;9.996;2023-02-22T07:13:33;1.80;99.90
21302;DHT22;10810;48.270;9.996;2023-02-22T07:16:06;1.90;99.90
21302;DHT22;10810;48.270;9.996;2023-02-22T07:18:48;0.90;99.90
21302;DHT22;10810;48.270;9.996;2023-02-22T07:21:55;1.80;99.90
21302;DHT22;10810;48.270;9.996;2023-02-22T07:24:08;1.90;99.90
21302;DHT22;10810;48.270;9.996;2023-02-22T07:47:25;2.20;99.90
21302;DHT22;10810;48.270;9.996;2023-02-22T07:50:12;2.40;99.90
21302;DHT22;10810;48.270;9.996;2023-02-22T07:56:33;1.70;99.90
21302;DHT22;10810;48.270;9.996;2023-02-22T08:02:59;2.40;99.90
21302;DHT22;10810;48.270;9.996;2023-02-22T08:09:10;2.80;99.90
21302;DHT22;10810;48.270;9.996;2023-02-22T08:30:27;3.30;99.90
21302;DHT22;10810;48.270;9.996;2023-02-22T08:36:24;3.40;99.90
21302;DHT22;10810;48.270;9.996;2023-02-22T08:38:51;3.40;99.90
21302;DHT22;10810;48.270;9.996;2023-02-22T08:41:29;3.60;99.90
21302;DHT22;10810;48.270;9.996;2023-02-22T08:44:02;3.60;99.90
21302;DHT22;10810;48.270;9.996;2023-02-22T08:46:41;3.90;99.90
21302;DHT22;10810;48.270;9.996;2023-02-22T08:49:10;4.00;99.90
21302;DHT22;10810;48.270;9.996;2023-02-22T08:51:38;4.10;99.90
21302;DHT22;10810;48.270;9.996;2023-02-22T08:54:05;4.20;99.90
21302;DHT22;10810;48.270;9.996;2023-02-22T08:56:32;4.30;99.90
21302;DHT22;10810;48.270;9.996;2023-02-22T08:58:59;4.20;99.90
21302;DHT22;10810;48.270;9.996;2023-02-22T09:01:26;4.20;99.90
21302;DHT22;10810;48.270;9.996;2023-02-22T09:03:55;4.20;99.90
21302;DHT22;10810;48.270;9.996;2023-02-22T09:06:22;4.30;99.90
21302;DHT22;10810;48.270;9.996;2023-02-22T09:08:49;4.50;99.90
21302;DHT22;10810;48.270;9.996;2023-02-22T09:11:16;4.70;99.90
21302;DHT22;10810;48.270;9.996;2023-02-22T09:13:43;4.80;99.90
21302;DHT22;10810;48.270;9.996;2023-02-22T09:16:10;4.80;99.90
21302;DHT22;10810;48.270;9.996;2023-02-22T09:18:37;5.00;99.90
21302;DHT22;10810;48.270;9.996;2023-02-22T09:21:06;5.10;99.90
21302;DHT22;10810;48.270;9.996;2023-02-22T09:23:33;5.10;99.90
21302;DHT22;10810;48.270;9.996;2023-02-22T09:26:00;5.20;99.90
21302;DHT22;10810;48.270;9.996;2023-02-22T09:28:27;5.30;99.90
21302;DHT22;10810;48.270;9.996;2023-02-22T09:30:54;5.40;99.90
21302;DHT22;10810;48.270;9.996;2023-02-22T09:33:21;5.50;99.90
21302;DHT22;10810;48.270;9.996;2023-02-22T09:35:51;5.50;99.90
21302;DHT22;10810;48.270;9.996;2023-02-22T09:38:22;5.40;99.90
21302;DHT22;10810;48.270;9.996;2023-02-22T09:41:07;5.60;99.90
21302;DHT22;10810;48.270;9.996;2023-02-22T09:44:13;5.60;99.90
21302;DHT22;10810;48.270;9.996;2023-02-22T09:46:36;5.50;99.90
21302;DHT22;10810;48.270;9.996;2023-02-22T09:49:18;5.50;99.90
21302;DHT22;10810;48.270;9.996;2023-02-22T09:51:57;4.50;99.90
21302;DHT22;10810;48.270;9.996;2023-02-22T09:54:36;5.70;99.90
21302;DHT22;10810;48.270;9.996;2023-02-22T09:57:19;5.90;99.90
21302;DHT22;10810;48.270;9.996;2023-02-22T10:00:11;6.10;99.90
21302;DHT22;10810;48.270;9.996;2023-02-22T10:02:50;6.30;99.90
21302;DHT22;10810;48.270;9.996;2023-02-22T10:05:28;6.40;99.90
21302;DHT22;10810;48.270;9.996;2023-02-22T10:08:10;6.50;99.90
21302;DHT22;10810;48.270;9.996;2023-02-22T10:10:44;6.60;99.90
21302;DHT22;10810;48.270;9.996;2023-02-22T10:13:24;7.00;99.90
21302;DHT22;10810;48.270;9.996;2023-02-22T10:16:00;7.10;99.90
21302;DHT22;10810;48.270;9.996;2023-02-22T10:18:59;7.20;99.90
21302;DHT22;10810;48.270;9.996;2023-02-22T10:21:47;7.30;99.90
21302;DHT22;10810;48.270;9.996;2023-02-22T10:24:41;7.30;99.90
21302;DHT22;10810;48.270;9.996;2023-02-22T10:27:50;7.40;99.90
21302;DHT22;10810;48.270;9.996;2023-02-22T10:30:25;7.60;99.90
21302;DHT22;10810;48.270;9.996;2023-02-22T10:33:08;7.70;99.90
21302;DHT22;10810;48.270;9.996;2023-02-22T10:35:38;7.90;99.90
21302;DHT22;10810;48.270;9.996;2023-02-22T10:38:18;8.10;99.90
21302;DHT22;10810;48.270;9.996;2023-02-22T10:41:18;8.30;99.90
21302;DHT22;10810;48.270;9.996;2023-02-22T10:43:50;8.40;99.90
21302;DHT22;10810;48.270;9.996;2023-02-22T10:46:30;8.60;99.90
21302;DHT22;10810;48.270;9.996;2023-02-22T10:49:04;8.90;99.90
21302;DHT22;10810;48.270;9.996;2023-02-22T10:51:39;9.00;99.90
21302;DHT22;10810;48.270;9.996;2023-02-22T10:54:20;9.00;99.90
21302;DHT22;10810;48.270;9.996;2023-02-22T10:56:55;9.10;99.90
21302;DHT22;10810;48.270;9.996;2023-02-22T10:59:44;9.30;99.90
21302;DHT22;10810;48.270;9.996;2023-02-22T11:02:18;9.40;99.90
21302;DHT22;10810;48.270;9.996;2023-02-22T11:04:47;9.50;99.90
21302;DHT22;10810;48.270;9.996;2023-02-22T11:07:21;9.60;99.90
21302;DHT22;10810;48.270;9.996;2023-02-22T11:09:51;9.70;99.90
21302;DHT22;10810;48.270;9.996;2023-02-22T11:12:24;9.90;99.90
21302;DHT22;10810;48.270;9.996;2023-02-22T11:14:55;9.90;99.90
21302;DHT22;10810;48.270;9.996;2023-02-22T11:17:45;10.00;99.90
21302;DHT22;10810;48.270;9.996;2023-02-22T11:20:17;10.10;99.90
21302;DHT22;10810;48.270;9.996;2023-02-22T11:22:51;10.10;99.90
21302;DHT22;10810;48.270;9.996;2023-02-22T11:25:21;10.50;99.90
21302;DHT22;10810;48.270;9.996;2023-02-22T11:27:51;10.10;99.90
21302;DHT22;10810;48.270;9.996;2023-02-22T11:30:28;10.20;99.90
21302;DHT22;10810;48.270;9.996;2023-02-22T11:32:57;10.30;99.90
21302;DHT22;10810;48.270;9.996;2023-02-22T11:40:00;10.40;99.90
21302;DHT22;10810;48.270;9.996;2023-02-22T11:53:17;9.70;99.90
21302;DHT22;10810;48.270;9.996;2023-02-22T11:56:17;10.80;99.90
21302;DHT22;10810;48.270;9.996;2023-02-22T12:08:56;10.40;99.90
21302;DHT22;10810;48.270;9.996;2023-02-22T12:34:52;12.10;99.90
21302;DHT22;10810;48.270;9.996;2023-02-22T12:37:25;12.20;99.90
21302;DHT22;10810;48.270;9.996;2023-02-22T12:41:17;12.10;99.90
21302;DHT22;10810;48.270;9.996;2023-02-22T12:43:22;12.10;99.90
21302;DHT22;10810;48.270;9.996;2023-02-22T12:45:59;12.00;99.90
21302;DHT22;10810;48.270;9.996;2023-02-22T12:48:50;12.00;99.90
21302;DHT22;10810;48.270;9.996;2023-02-22T12:51:47;11.90;99.90
21302;DHT22;10810;48.270;9.996;2023-02-22T12:57:18;11.90;99.90
21302;DHT22;10810;48.270;9.996;2023-02-22T12:59:11;12.00;99.90
21302;DHT22;10810;48.270;9.996;2023-02-22T13:01:20;11.90;99.90
21302;DHT22;10810;48.270;9.996;2023-02-22T13:03:48;11.80;99.90
21302;DHT22;10810;48.270;9.996;2023-02-22T13:06:29;11.70;99.90
21302;DHT22;10810;48.270;9.996;2023-02-22T13:09:07;11.70;99.90
21302;DHT22;10810;48.270;9.996;2023-02-22T13:12:43;11.70;99.90
21302;DHT22;10810;48.270;9.996;2023-02-22T13:15:49;10.90;99.90
21302;DHT22;10810;48.270;9.996;2023-02-22T13:21:44;11.60;99.90
21302;DHT22;10810;48.270;9.996;2023-02-22T13:24:42;11.60;99.90
21302;DHT22;10810;48.270;9.996;2023-02-22T13:27:46;11.70;99.90
21302;DHT22;10810;48.270;9.996;2023-02-22T13:30:20;11.70;99.90
21302;DHT22;10810;48.270;9.996;2023-02-22T13:33:09;11.80;99.90
21302;DHT22;10810;48.270;9.996;2023-02-22T13:35:56;11.90;99.90
21302;DHT22;10810;48.270;9.996;2023-02-22T13:39:18;11.90;99.90
21302;DHT22;10810;48.270;9.996;2023-02-22T13:42:20;11.90;99.90
21302;DHT22;10810;48.270;9.996;2023-02-22T13:48:23;12.10;99.90
21302;DHT22;10810;48.270;9.996;2023-02-22T13:51:12;12.10;99.90
21302;DHT22;10810;48.270;9.996;2023-02-22T13:56:47;12.30;99.90
21302;DHT22;10810;48.270;9.996;2023-02-22T13:59:55;12.40;99.90
21302;DHT22;10810;48.270;9.996;2023-02-22T14:03:01;12.60;99.90
21302;DHT22;10810;48.270;9.996;2023-02-22T14:05:36;12.80;99.90
21302;DHT22;10810;48.270;9.996;2023-02-22T14:08:43;12.90;99.90
21302;DHT22;10810;48.270;9.996;2023-02-22T14:14:16;13.20;99.90
21302;DHT22;10810;48.270;9.996;2023-02-22T14:20:04;13.40;99.90
21302;DHT22;10810;48.270;9.996;2023-02-22T14:23:31;13.60;99.90
21302;DHT22;10810;48.270;9.996;2023-02-22T14:26:12;13.70;99.90
21302;DHT22;10810;48.270;9.996;2023-02-22T14:28:52;13.80;99.90
21302;DHT22;10810;48.270;9.996;2023-02-22T14:31:29;13.90;99.90
21302;DHT22;10810;48.270;9.996;2023-02-22T14:34:08;13.90;99.90
21302;DHT22;10810;48.270;9.996;2023-02-22T14:40:18;13.80;99.90
21302;DHT22;10810;48.270;9.996;2023-02-22T14:42:57;13.90;99.90
21302;DHT22;10810;48.270;9.996;2023-02-22T14:45:34;13.80;99.90
21302;DHT22;10810;48.270;9.996;2023-02-22T14:48:26;13.90;99.90
21302;DHT22;10810;48.270;9.996;2023-02-22T14:51:16;13.90;99.90
21302;DHT22;10810;48.270;9.996;2023-02-22T14:54:06;13.80;99.90
21302;DHT22;10810;48.270;9.996;2023-02-22T14:57:00;13.70;99.90
21302;DHT22;10810;48.270;9.996;2023-02-22T14:59:47;13.70;99.90
21302;DHT22;10810;48.270;9.996;2023-02-22T15:02:17;13.50;99.90
21302;DHT22;10810;48.270;9.996;2023-02-22T15:04:52;13.50;99.90
21302;DHT22;10810;48.270;9.996;2023-02-22T15:07:25;13.50;99.90
21302;DHT22;10810;48.270;9.996;2023-02-22T15:10:17;13.40;99.90
21302;DHT22;10810;48.270;9.996;2023-02-22T15:13:02;13.30;99.90
21302;DHT22;10810;48.270;9.996;2023-02-22T15:15:54;13.20;99.90
21302;DHT22;10810;48.270;9.996;2023-02-22T15:18:43;13.20;99.90
21302;DHT22;10810;48.270;9.996;2023-02-22T15:21:15;13.10;99.90
21302;DHT22;10810;48.270;9.996;2023-02-22T15:24:23;13.10;99.90
21302;DHT22;10810;48.270;9.996;2023-02-22T15:26:51;13.00;99.90
21302;DHT22;10810;48.270;9.996;2023-02-22T15:29:40;13.00;99.90
21302;DHT22;10810;48.270;9.996;2023-02-22T15:32:19;12.90;99.90
21302;DHT22;10810;48.270;9.996;2023-02-22T15:35:16;12.70;99.90
21302;DHT22;10810;48.270;9.996;2023-02-22T15:37:58;12.60;99.90
21302;DHT22;10810;48.270;9.996;2023-02-22T15:41:05;12.50;99.90
21302;DHT22;10810;48.270;9.996;2023-02-22T15:43:40;12.40;99.90
21302;DHT22;10810;48.270;9.996;2023-02-22T15:46:29;12.40;99.90
21302;DHT22;10810;48.270;9.996;2023-02-22T15:49:24;12.30;99.90
21302;DHT22;10810;48.270;9.996;2023-02-22T15:52:13;12.20;99.90
21302;DHT22;10810;48.270;9.996;2023-02-22T15:54:46;12.10;99.90
21302;DHT22;10810;48.270;9.996;2023-02-22T15:57:25;12.00;99.90
21302;DHT22;10810;48.270;9.996;2023-02-22T15:59:55;12.00;99.90
21302;DHT22;10810;48.270;9.996;2023-02-22T16:02:39;12.00;99.90
21302;DHT22;10810;48.270;9.996;2023-02-22T16:05:11;12.00;99.90
21302;DHT22;10810;48.270;9.996;2023-02-22T16:07:44;12.00;99.90
21302;DHT22;10810;48.270;9.996;2023-02-22T16:10:25;12.00;99.90
21302;DHT22;10810;48.270;9.996;2023-02-22T16:13:07;12.00;99.90
21302;DHT22;10810;48.270;9.996;2023-02-22T16:15:36;12.00;99.90
21302;DHT22;10810;48.270;9.996;2023-02-22T16:18:23;12.00;99.90
21302;DHT22;10810;48.270;9.996;2023-02-22T16:21:21;12.00;99.90
21302;DHT22;10810;48.270;9.996;2023-02-22T16:25:24;11.00;99.90
21302;DHT22;10810;48.270;9.996;2023-02-22T16:31:10;11.50;99.90
21302;DHT22;10810;48.270;9.996;2023-02-22T16:34:08;11.30;99.90
21302;DHT22;10810;48.270;9.996;2023-02-22T16:37:46;11.10;99.90
21302;DHT22;10810;48.270;9.996;2023-02-22T16:41:03;10.60;99.90
21302;DHT22;10810;48.270;9.996;2023-02-22T16:44:57;10.90;99.90
21302;DHT22;10810;48.270;9.996;2023-02-22T16:53:35;10.40;99.90
21302;DHT22;10810;48.270;9.996;2023-02-22T16:57:09;10.20;99.90
21302;DHT22;10810;48.270;9.996;2023-02-22T17:00:20;10.20;99.90
21302;DHT22;10810;48.270;9.996;2023-02-22T17:03:32;10.10;99.90
21302;DHT22;10810;48.270;9.996;2023-02-22T17:06:04;9.90;99.90
21302;DHT22;10810;48.270;9.996;2023-02-22T17:08:45;9.70;99.90
21302;DHT22;10810;48.270;9.996;2023-02-22T17:11:34;9.70;99.90
21302;DHT22;10810;48.270;9.996;2023-02-22T17:14:03;9.60;99.90
21302;DHT22;10810;48.270;9.996;2023-02-22T17:16:33;9.50;99.90
21302;DHT22;10810;48.270;9.996;2023-02-22T17:19:22;9.40;99.90
21302;DHT22;10810;48.270;9.996;2023-02-22T17:21:53;9.30;99.90
21302;DHT22;10810;48.270;9.996;2023-02-22T17:25:33;9.70;99.90
21302;DHT22;10810;48.270;9.996;2023-02-22T17:27:49;9.10;99.90
21302;DHT22;10810;48.270;9.996;2023-02-22T17:30:21;9.00;99.90
21302;DHT22;10810;48.270;9.996;2023-02-22T17:33:12;9.00;99.90
21302;DHT22;10810;48.270;9.996;2023-02-22T17:39:08;8.50;99.90
21302;DHT22;10810;48.270;9.996;2023-02-22T17:41:48;8.50;99.90
21302;DHT22;10810;48.270;9.996;2023-02-22T17:44:25;8.50;99.90
21302;DHT22;10810;48.270;9.996;2023-02-22T17:46:54;8.40;99.90
21302;DHT22;10810;48.270;9.996;2023-02-22T17:49:35;8.40;99.90
21302;DHT22;10810;48.270;9.996;2023-02-22T17:52:13;8.40;99.90
21302;DHT22;10810;48.270;9.996;2023-02-22T18:01:35;8.20;99.90
21302;DHT22;10810;48.270;9.996;2023-02-22T18:04:22;8.90;99.90
21302;DHT22;10810;48.270;9.996;2023-02-22T18:07:31;8.00;99.90
21302;DHT22;10810;48.270;9.996;2023-02-22T18:10:10;8.00;99.90
21302;DHT22;10810;48.270;9.996;2023-02-22T18:12:54;7.90;99.90
21302;DHT22;10810;48.270;9.996;2023-02-22T18:16:19;7.60;99.90
21302;DHT22;10810;48.270;9.996;2023-02-22T18:18:51;7.60;99.90
21302;DHT22;10810;48.270;9.996;2023-02-22T18:22:05;7.50;99.90
21302;DHT22;10810;48.270;9.996;2023-02-22T18:25:14;7.50;99.90
21302;DHT22;10810;48.270;9.996;2023-02-22T18:28:08;7.40;99.90
21302;DHT22;10810;48.270;9.996;2023-02-22T18:31:25;7.50;99.90
21302;DHT22;10810;48.270;9.996;2023-02-22T18:37:17;7.50;99.90
21302;DHT22;10810;48.270;9.996;2023-02-22T18:40:49;7.40;99.90
21302;DHT22;10810;48.270;9.996;2023-02-22T18:43:43;7.30;99.90
21302;DHT22;10810;48.270;9.996;2023-02-22T18:47:13;7.50;99.90
21302;DHT22;10810;48.270;9.996;2023-02-22T18:51:47;7.30;99.90
21302;DHT22;10810;48.270;9.996;2023-02-22T18:53:02;7.20;99.90
21302;DHT22;10810;48.270;9.996;2023-02-22T18:55:44;7.10;99.90
21302;DHT22;10810;48.270;9.996;2023-02-22T18:58:15;7.10;99.90
21302;DHT22;10810;48.270;9.996;2023-02-22T19:00:44;7.00;99.90
21302;DHT22;10810;48.270;9.996;2023-02-22T19:03:33;7.00;99.90
21302;DHT22;10810;48.270;9.996;2023-02-22T19:06:19;7.00;99.90
21302;DHT22;10810;48.270;9.996;2023-02-22T19:25:36;7.30;99.90
21302;DHT22;10810;48.270;9.996;2023-02-22T19:28:38;7.30;99.90
21302;DHT22;10810;48.270;9.996;2023-02-22T19:31:35;7.40;99.90
21302;DHT22;10810;48.270;9.996;2023-02-22T19:34:42;7.50;99.90
21302;DHT22;10810;48.270;9.996;2023-02-22T19:37:35;7.50;99.90
21302;DHT22;10810;48.270;9.996;2023-02-22T19:40:19;7.40;99.90
21302;DHT22;10810;48.270;9.996;2023-02-22T19:42:50;7.50;99.90
21302;DHT22;10810;48.270;9.996;2023-02-22T19:45:38;7.50;99.90
21302;DHT22;10810;48.270;9.996;2023-02-22T19:48:27;7.50;99.90
21302;DHT22;10810;48.270;9.996;2023-02-22T19:55:03;6.70;99.90
21302;DHT22;10810;48.270;9.996;2023-02-22T20:07:44;7.40;99.90
21302;DHT22;10810;48.270;9.996;2023-02-22T20:10:20;7.20;99.90